Canterbury, Connecticut
Current Conditions -  °F | °C
As of 9:29 AM on Friday 28 Nov 2014 (Local Time) from KIJD Reporting Station
Overcast Overcast  
Wind Chill: 24°   Ceiling: 2200
Heat Index: 32°   Visibility: 10mi
Dew Point: 24°   Wind: 9mph
Humidity: 73%   Direction: 300°WNW
Pressure: 30.1"   Gusts: 17mph
Location:  41.7°N, 71.97°W
Report Text: KIJD 281429Z AUTO 30008G15KT 10SM BKN022 OVC035 00/M04 A3010 RMK AO2 T00001044
Loading
Personal Weather Stations






























Interactive Weather Map New forecast layout! Learn more

10-Day Weather Forecast

Advertisements
Track Severe Weather on mobile